createdAt,value
2023-05-23T00:00:21.375Z,8.35
2023-05-23T00:02:50.134Z,8.31
2023-05-23T00:05:19.206Z,8.27
2023-05-23T00:07:47.444Z,8.23
2023-05-23T00:10:17.016Z,8.24
2023-05-23T00:12:48.428Z,8.21
2023-05-23T00:15:16.738Z,8.21
2023-05-23T00:17:44.992Z,8.18
2023-05-23T00:20:13.758Z,8.15
2023-05-23T00:22:43.250Z,8.13
2023-05-23T00:25:11.793Z,8.12
2023-05-23T00:27:41.375Z,8.11
2023-05-23T00:30:09.861Z,8.09
2023-05-23T00:32:38.276Z,8.10
2023-05-23T00:35:06.852Z,8.08
2023-05-23T00:37:35.927Z,8.07
2023-05-23T00:40:04.095Z,8.03
2023-05-23T00:42:33.136Z,7.99
2023-05-23T00:45:03.119Z,7.96
2023-05-23T00:47:31.339Z,7.91
2023-05-23T00:49:59.904Z,7.88
2023-05-23T00:52:29.151Z,7.85
2023-05-23T00:54:57.711Z,7.81
2023-05-23T00:57:25.944Z,7.77
2023-05-23T00:59:54.200Z,7.73
2023-05-23T01:02:25.141Z,7.70
2023-05-23T01:04:55.167Z,7.70
2023-05-23T01:07:23.637Z,7.69
2023-05-23T01:09:51.759Z,7.68
2023-05-23T01:12:26.870Z,7.68
2023-05-23T01:15:06.697Z,7.66
2023-05-23T01:17:47.500Z,7.64
2023-05-23T01:20:18.864Z,7.61
2023-05-23T01:22:56.447Z,7.60
2023-05-23T01:25:29.618Z,7.59
2023-05-23T01:28:02.260Z,7.58
2023-05-23T01:30:33.414Z,7.56
2023-05-23T01:33:03.553Z,7.58
2023-05-23T01:35:32.975Z,7.60
2023-05-23T01:38:01.295Z,7.61
2023-05-23T01:40:29.964Z,7.63
2023-05-23T01:42:59.597Z,7.64
2023-05-23T01:45:30.449Z,7.65
2023-05-23T01:50:42.137Z,7.64
2023-05-23T01:53:11.730Z,7.63
2023-05-23T01:55:41.475Z,7.63
2023-05-23T01:58:11.390Z,7.61
2023-05-23T02:00:39.591Z,7.61
2023-05-23T02:03:08.009Z,7.61
2023-05-23T02:05:36.594Z,7.58
2023-05-23T02:08:04.837Z,7.54
2023-05-23T02:10:33.309Z,7.53
2023-05-23T02:13:02.381Z,7.49
2023-05-23T02:15:32.699Z,7.48
2023-05-23T02:18:02.376Z,7.44
2023-05-23T02:20:30.613Z,7.42
2023-05-23T02:22:58.854Z,7.41
2023-05-23T02:25:26.998Z,7.34
2023-05-23T02:27:55.467Z,7.32
2023-05-23T02:30:23.623Z,7.30
2023-05-23T02:32:53.418Z,7.28
2023-05-23T02:35:22.159Z,7.29
2023-05-23T02:37:51.076Z,7.27
2023-05-23T02:40:19.327Z,7.26
2023-05-23T02:42:48.537Z,7.24
2023-05-23T02:45:16.676Z,7.24
2023-05-23T02:47:45.289Z,7.24
2023-05-23T02:50:14.882Z,7.22
2023-05-23T02:52:44.261Z,7.19
2023-05-23T02:55:13.195Z,7.18
2023-05-23T02:57:45.672Z,7.20
2023-05-23T03:00:15.311Z,7.18
2023-05-23T03:02:47.943Z,7.20
2023-05-23T03:05:18.177Z,7.19
2023-05-23T03:07:46.304Z,7.19
2023-05-23T03:10:14.547Z,7.19
2023-05-23T03:12:42.660Z,7.19
2023-05-23T03:15:12.059Z,7.17
2023-05-23T03:17:42.949Z,7.16
2023-05-23T03:20:12.242Z,7.15
2023-05-23T03:22:43.606Z,7.13
2023-05-23T03:25:11.725Z,7.09
2023-05-23T03:27:39.852Z,7.07
2023-05-23T03:30:09.328Z,7.07
2023-05-23T03:32:37.958Z,7.08
2023-05-23T03:35:06.997Z,7.07
2023-05-23T03:37:35.129Z,7.08
2023-05-23T03:40:04.878Z,7.08
2023-05-23T03:42:33.668Z,7.08
2023-05-23T03:45:01.970Z,7.09
2023-05-23T03:47:30.515Z,7.08
2023-05-23T03:50:00.269Z,7.08
2023-05-23T03:52:29.277Z,7.08
2023-05-23T03:54:57.932Z,7.08
2023-05-23T03:57:27.510Z,7.08
2023-05-23T03:59:56.046Z,7.09
2023-05-23T04:02:24.457Z,7.08
2023-05-23T04:04:54.269Z,7.12
2023-05-23T04:07:23.307Z,7.14
2023-05-23T04:09:51.581Z,7.15
2023-05-23T04:12:21.937Z,7.14
2023-05-23T04:14:51.587Z,7.14
2023-05-23T04:17:20.083Z,7.15
2023-05-23T04:19:48.321Z,7.16
2023-05-23T04:22:16.536Z,7.14
2023-05-23T04:24:46.138Z,7.14
2023-05-23T04:27:14.996Z,7.17
2023-05-23T04:29:44.384Z,7.18
2023-05-23T04:32:16.881Z,7.21
2023-05-23T04:34:45.314Z,7.25
2023-05-23T04:37:14.756Z,7.27
2023-05-23T04:39:43.220Z,7.30
2023-05-23T04:42:34.512Z,7.31
2023-05-23T04:45:11.759Z,7.32
2023-05-23T04:47:56.561Z,7.36
2023-05-23T04:50:40.941Z,7.39
2023-05-23T04:53:09.373Z,7.41
2023-05-23T04:55:38.217Z,7.43
2023-05-23T04:58:09.929Z,7.46
2023-05-23T05:00:38.258Z,7.51
2023-05-23T05:03:10.083Z,7.55
2023-05-23T05:05:42.916Z,7.60
2023-05-23T05:08:11.668Z,7.65
2023-05-23T05:10:40.042Z,7.70
2023-05-23T05:13:08.553Z,7.74
2023-05-23T05:15:45.036Z,7.78
2023-05-23T05:18:16.497Z,7.85
2023-05-23T05:20:44.780Z,7.90
2023-05-23T05:23:13.235Z,7.97
2023-05-23T05:25:41.848Z,8.04
2023-05-23T05:28:10.547Z,8.08
2023-05-23T05:30:43.869Z,8.17
2023-05-23T05:33:12.279Z,8.25
2023-05-23T05:35:42.629Z,8.31
2023-05-23T05:38:11.897Z,8.38
2023-05-23T05:40:41.378Z,8.45
2023-05-23T05:43:10.559Z,8.55
2023-05-23T05:45:40.099Z,8.61
2023-05-23T05:48:08.500Z,8.68
2023-05-23T05:50:37.281Z,8.77
2023-05-23T05:53:08.210Z,8.86
2023-05-23T05:55:36.800Z,8.94
2023-05-23T05:58:04.981Z,9.00
2023-05-23T06:00:46.382Z,9.08
2023-05-23T06:03:14.734Z,9.16
2023-05-23T06:05:50.988Z,9.24
2023-05-23T06:08:20.986Z,9.33
2023-05-23T06:10:50.138Z,9.41
2023-05-23T06:13:18.432Z,9.52
2023-05-23T06:15:50.828Z,9.64
2023-05-23T06:18:19.020Z,9.74
2023-05-23T06:20:47.198Z,9.84
2023-05-23T06:23:18.263Z,9.96
2023-05-23T06:25:49.614Z,10.04
2023-05-23T06:28:17.755Z,10.07
2023-05-23T06:30:47.758Z,10.14
2023-05-23T06:33:16.415Z,10.23
2023-05-23T06:35:44.928Z,10.29
2023-05-23T06:38:14.013Z,10.39
2023-05-23T06:40:43.537Z,10.45
2023-05-23T06:43:13.495Z,10.61
2023-05-23T06:45:47.056Z,10.72
2023-05-23T06:48:17.415Z,10.68
2023-05-23T06:50:46.607Z,10.75
2023-05-23T06:53:18.936Z,10.70
2023-05-23T06:55:48.145Z,10.79
2023-05-23T06:58:21.124Z,10.92
2023-05-23T07:00:49.980Z,11.07
2023-05-23T07:03:24.066Z,11.24
2023-05-23T07:05:53.076Z,11.40
2023-05-23T07:08:23.675Z,11.54
2023-05-23T07:11:02.454Z,11.73
2023-05-23T07:13:35.501Z,11.91
2023-05-23T07:16:04.019Z,12.05
2023-05-23T07:18:35.041Z,12.25
2023-05-23T07:21:05.430Z,12.42
2023-05-23T07:23:34.654Z,12.57
2023-05-23T07:26:03.513Z,12.54
2023-05-23T07:28:52.318Z,12.81
2023-05-23T07:31:20.682Z,13.08
2023-05-23T07:33:49.944Z,13.22
2023-05-23T07:36:27.746Z,13.53
2023-05-23T07:38:56.558Z,13.75
2023-05-23T07:41:25.179Z,13.89
2023-05-23T07:43:54.768Z,14.00
2023-05-23T07:46:23.404Z,14.11
2023-05-23T07:48:51.649Z,14.14
2023-05-23T07:51:21.492Z,14.25
2023-05-23T07:53:52.179Z,14.46
2023-05-23T07:56:23.279Z,14.74
2023-05-23T07:58:51.950Z,14.97
2023-05-23T08:01:22.300Z,15.03
2023-05-23T08:04:00.533Z,15.10
2023-05-23T08:06:33.834Z,15.07
2023-05-23T08:09:06.940Z,15.24
2023-05-23T08:11:40.164Z,15.43
2023-05-23T08:14:08.661Z,15.85
2023-05-23T08:16:41.803Z,16.10
2023-05-23T08:19:18.562Z,16.23
2023-05-23T08:21:48.675Z,16.67
2023-05-23T08:24:17.187Z,17.09
2023-05-23T08:26:46.039Z,17.63
2023-05-23T08:29:16.331Z,17.84
2023-05-23T08:31:46.632Z,18.14
2023-05-23T08:34:15.300Z,18.25
2023-05-23T08:36:44.362Z,18.16
2023-05-23T08:39:18.143Z,17.80
2023-05-23T08:41:53.690Z,18.39
2023-05-23T08:44:24.317Z,18.18
2023-05-23T08:47:07.246Z,18.21
2023-05-23T08:49:57.873Z,18.33
2023-05-23T08:52:35.061Z,18.67
2023-05-23T08:55:11.034Z,18.99
2023-05-23T08:57:44.201Z,19.26
2023-05-23T09:00:38.191Z,19.61
2023-05-23T09:03:15.901Z,19.55
2023-05-23T09:06:11.254Z,19.84
2023-05-23T09:08:47.622Z,20.12
2023-05-23T09:11:23.125Z,20.24
2023-05-23T09:13:53.169Z,20.18
2023-05-23T09:16:28.795Z,20.63
2023-05-23T09:19:15.896Z,20.29
2023-05-23T09:21:57.143Z,20.18
2023-05-23T09:24:35.602Z,19.96
2023-05-23T09:27:12.435Z,20.50
2023-05-23T09:29:49.350Z,20.72
2023-05-23T09:32:24.611Z,20.85
2023-05-23T09:35:04.788Z,21.26
2023-05-23T09:37:40.981Z,21.77
2023-05-23T09:40:13.374Z,21.59
2023-05-23T09:42:51.067Z,21.89
2023-05-23T09:45:22.343Z,21.88
2023-05-23T09:47:55.573Z,21.88
2023-05-23T09:50:30.982Z,21.81
2023-05-23T09:53:06.413Z,22.08
2023-05-23T09:55:39.081Z,21.76
2023-05-23T09:58:13.239Z,21.50
2023-05-23T10:00:47.633Z,21.44
2023-05-23T10:03:17.971Z,21.88
2023-05-23T10:05:48.423Z,21.27
2023-05-23T10:08:23.631Z,21.31
2023-05-23T10:11:14.770Z,21.48
2023-05-23T10:13:49.350Z,21.73
2023-05-23T10:16:23.665Z,21.27
2023-05-23T10:18:58.996Z,20.60
2023-05-23T10:21:38.552Z,20.78
2023-05-23T10:24:12.079Z,20.58
2023-05-23T10:26:45.669Z,21.08
2023-05-23T10:29:19.676Z,20.85
2023-05-23T10:31:49.766Z,21.05
2023-05-23T10:34:27.833Z,20.86
2023-05-23T10:37:07.009Z,20.34
2023-05-23T10:39:44.551Z,20.79
2023-05-23T10:42:15.005Z,21.03
2023-05-23T10:44:43.516Z,21.17
2023-05-23T10:47:13.215Z,21.15
2023-05-23T10:49:42.721Z,21.28
2023-05-23T10:52:13.136Z,21.04
2023-05-23T10:54:45.367Z,20.98
2023-05-23T10:57:17.829Z,21.05
2023-05-23T10:59:47.094Z,21.01
2023-05-23T11:02:16.248Z,20.99
2023-05-23T11:04:45.460Z,20.90
2023-05-23T11:07:34.276Z,20.83
2023-05-23T11:10:16.178Z,20.95
2023-05-23T11:12:49.634Z,21.53
2023-05-23T11:15:25.973Z,21.57
2023-05-23T11:18:00.871Z,21.65
2023-05-23T11:20:31.724Z,21.71
2023-05-23T11:23:06.794Z,22.26
2023-05-23T11:25:49.216Z,22.52
2023-05-23T11:28:18.644Z,22.66
2023-05-23T11:30:49.230Z,23.29
2023-05-23T11:33:18.869Z,23.80
2023-05-23T11:35:47.992Z,24.19
2023-05-23T11:38:17.966Z,24.65
2023-05-23T11:40:47.212Z,24.58
2023-05-23T11:43:16.688Z,24.23
2023-05-23T11:45:47.031Z,24.93
2023-05-23T11:48:16.778Z,25.29
2023-05-23T11:50:48.782Z,25.12
2023-05-23T11:53:26.495Z,25.30
2023-05-23T11:56:01.661Z,25.21
2023-05-23T11:58:36.818Z,25.00
2023-05-23T12:01:11.067Z,25.12
2023-05-23T12:03:51.810Z,25.17
2023-05-23T12:06:23.951Z,25.49
2023-05-23T12:08:55.055Z,25.01
2023-05-23T12:11:28.289Z,25.47
2023-05-23T12:14:03.098Z,25.16
2023-05-23T12:16:32.782Z,25.02
2023-05-23T12:19:01.398Z,24.81
2023-05-23T12:21:42.122Z,25.06
2023-05-23T12:24:16.713Z,24.76
2023-05-23T12:26:48.917Z,24.90
2023-05-23T12:29:17.888Z,24.06
2023-05-23T12:31:46.210Z,24.64
2023-05-23T12:34:14.436Z,24.58
2023-05-23T12:36:48.967Z,23.81
2023-05-23T12:39:25.842Z,24.43
2023-05-23T12:41:56.313Z,24.70
2023-05-23T12:44:24.456Z,24.82
2023-05-23T12:46:52.616Z,24.81
2023-05-23T12:49:21.990Z,24.50
2023-05-23T12:51:50.372Z,24.82
2023-05-23T12:54:20.309Z,24.95
2023-05-23T12:56:48.674Z,25.05
2023-05-23T12:59:17.086Z,25.04
2023-05-23T13:01:45.282Z,25.29
2023-05-23T13:04:13.542Z,25.45
2023-05-23T13:06:41.833Z,25.82
2023-05-23T13:09:10.368Z,25.43
2023-05-23T13:11:40.212Z,25.43
2023-05-23T13:14:08.388Z,25.51
2023-05-23T13:16:39.328Z,25.39
2023-05-23T13:19:07.944Z,24.99
2023-05-23T13:21:36.325Z,24.71
2023-05-23T13:24:04.840Z,25.20
2023-05-23T13:26:32.940Z,25.04
2023-05-23T13:29:02.595Z,24.97
2023-05-23T13:31:30.860Z,25.09
2023-05-23T13:33:59.223Z,25.04
2023-05-23T13:36:27.821Z,24.49
2023-05-23T13:38:56.090Z,24.74
2023-05-23T13:41:24.852Z,24.38
2023-05-23T13:43:53.031Z,24.56
2023-05-23T13:46:22.796Z,24.63
2023-05-23T13:48:50.950Z,24.58
2023-05-23T13:51:19.326Z,24.27
2023-05-23T13:53:47.558Z,24.66
2023-05-23T13:56:17.072Z,24.55
2023-05-23T13:58:46.775Z,24.74
2023-05-23T14:01:15.318Z,24.95
2023-05-23T14:03:44.941Z,24.61
2023-05-23T14:06:13.051Z,24.63
2023-05-23T14:08:41.417Z,24.46
2023-05-23T14:11:09.554Z,24.44
2023-05-23T14:13:37.725Z,24.55
2023-05-23T14:16:07.948Z,24.90
2023-05-23T14:18:37.155Z,24.71
2023-05-23T14:21:07.370Z,24.65
2023-05-23T14:23:35.662Z,24.78
2023-05-23T14:26:05.095Z,24.86
2023-05-23T14:28:36.189Z,25.17
2023-05-23T14:31:04.703Z,24.72
2023-05-23T14:33:33.489Z,24.76
2023-05-23T14:36:02.146Z,24.56
2023-05-23T14:38:31.688Z,24.71
2023-05-23T14:41:00.303Z,24.64
2023-05-23T14:43:30.281Z,24.45
2023-05-23T14:46:01.005Z,24.73
2023-05-23T14:48:31.181Z,24.66
2023-05-23T14:51:01.799Z,24.55
2023-05-23T14:53:31.964Z,24.52
2023-05-23T14:56:01.475Z,24.13
2023-05-23T14:58:30.689Z,24.29
2023-05-23T15:00:58.896Z,24.47
2023-05-23T15:03:27.128Z,24.00
2023-05-23T15:05:55.306Z,24.10
2023-05-23T15:08:23.905Z,23.89
2023-05-23T15:10:53.822Z,24.06
2023-05-23T15:13:23.483Z,23.86
2023-05-23T15:15:53.260Z,24.05
2023-05-23T15:18:35.679Z,24.06
2023-05-23T15:21:08.454Z,24.16
2023-05-23T15:23:37.153Z,24.13
2023-05-23T15:26:07.687Z,24.26
2023-05-23T15:28:36.873Z,23.96
2023-05-23T15:31:05.675Z,24.14
2023-05-23T15:33:34.472Z,23.93
2023-05-23T15:36:02.863Z,23.89
2023-05-23T15:38:31.289Z,23.97
2023-05-23T15:41:01.460Z,24.27
2023-05-23T15:43:32.784Z,23.90
2023-05-23T15:46:01.933Z,24.05
2023-05-23T15:48:30.542Z,23.92
2023-05-23T15:51:01.460Z,23.49
2023-05-23T15:53:32.305Z,23.63
2023-05-23T15:56:03.910Z,23.80
2023-05-23T15:58:34.927Z,23.61
2023-05-23T16:01:04.293Z,23.71
2023-05-23T16:03:32.786Z,23.73
2023-05-23T16:06:01.256Z,23.54
2023-05-23T16:08:30.443Z,23.55
2023-05-23T16:10:59.227Z,23.49
2023-05-23T16:13:28.292Z,23.62
2023-05-23T16:15:58.606Z,23.62
2023-05-23T16:18:27.121Z,23.36
2023-05-23T16:20:57.214Z,23.42
2023-05-23T16:23:29.533Z,23.24
2023-05-23T16:25:58.947Z,23.14
2023-05-23T16:28:28.868Z,23.21
2023-05-23T16:30:59.856Z,22.90
2023-05-23T16:33:30.050Z,23.27
2023-05-23T16:35:59.553Z,23.05
2023-05-23T16:38:29.009Z,23.13
2023-05-23T16:40:57.388Z,23.13
2023-05-23T16:43:26.201Z,23.25
2023-05-23T16:45:54.412Z,23.39
2023-05-23T16:48:24.382Z,23.01
2023-05-23T16:50:52.870Z,23.06
2023-05-23T16:53:21.409Z,23.03
2023-05-23T16:55:49.475Z,22.31
2023-05-23T16:58:20.071Z,22.50
2023-05-23T17:00:49.260Z,22.36
2023-05-23T17:03:17.728Z,22.59
2023-05-23T17:05:47.825Z,22.14
2023-05-23T17:08:16.287Z,22.04
2023-05-23T17:10:44.927Z,21.95
2023-05-23T17:13:13.207Z,21.97
2023-05-23T17:15:41.800Z,22.01
2023-05-23T17:18:10.143Z,21.81
2023-05-23T17:20:38.297Z,21.98
2023-05-23T17:23:07.833Z,21.83
2023-05-23T17:25:36.062Z,21.97
2023-05-23T17:28:07.153Z,21.80
2023-05-23T17:30:35.372Z,21.76
2023-05-23T17:33:03.697Z,21.48
2023-05-23T17:35:31.957Z,21.38
2023-05-23T17:38:00.960Z,21.26
2023-05-23T17:40:30.583Z,21.19
2023-05-23T17:42:58.925Z,20.97
2023-05-23T17:45:27.352Z,20.85
2023-05-23T17:47:55.794Z,20.84
2023-05-23T17:50:24.313Z,20.73
2023-05-23T17:52:52.440Z,20.67
2023-05-23T17:55:20.783Z,20.67
2023-05-23T17:57:50.456Z,20.56
2023-05-23T18:00:19.194Z,20.57
2023-05-23T18:02:47.268Z,20.51
2023-05-23T18:05:15.893Z,20.47
2023-05-23T18:07:44.043Z,20.39
2023-05-23T18:10:12.539Z,20.33
2023-05-23T18:12:41.159Z,20.31
2023-05-23T18:15:12.335Z,20.26
2023-05-23T18:17:40.693Z,20.29
2023-05-23T18:20:09.706Z,20.22
2023-05-23T18:22:37.866Z,20.34
2023-05-23T18:25:06.937Z,20.28
2023-05-23T18:27:35.351Z,20.30
2023-05-23T18:30:03.730Z,20.32
2023-05-23T18:32:33.424Z,19.98
2023-05-23T18:35:02.018Z,19.98
2023-05-23T18:37:30.483Z,19.75
2023-05-23T18:40:00.388Z,19.91
2023-05-23T18:42:29.141Z,19.74
2023-05-23T18:44:57.225Z,19.64
2023-05-23T18:47:25.450Z,19.68
2023-05-23T18:49:55.086Z,19.51
2023-05-23T18:52:23.387Z,19.31
2023-05-23T18:54:53.960Z,19.27
2023-05-23T18:57:26.596Z,19.35
2023-05-23T19:00:00.521Z,19.22
2023-05-23T19:02:30.143Z,19.17
2023-05-23T19:05:03.654Z,19.04
2023-05-23T19:07:37.521Z,18.91
2023-05-23T19:10:11.240Z,18.91
2023-05-23T19:12:41.120Z,18.53
2023-05-23T19:15:14.951Z,18.57
2023-05-23T19:17:49.158Z,18.42
2023-05-23T19:20:25.449Z,18.38
2023-05-23T19:22:56.972Z,18.24
2023-05-23T19:25:28.590Z,18.17
2023-05-23T19:28:02.138Z,18.17
2023-05-23T19:30:35.957Z,18.07
2023-05-23T19:33:09.455Z,17.96
2023-05-23T19:35:44.284Z,17.90
2023-05-23T19:38:13.638Z,17.81
2023-05-23T19:40:46.198Z,17.70
2023-05-23T19:43:19.783Z,17.59
2023-05-23T19:45:49.996Z,17.43
2023-05-23T19:48:21.515Z,17.41
2023-05-23T19:50:54.673Z,17.26
2023-05-23T19:53:27.992Z,17.14
2023-05-23T19:55:59.958Z,17.05
2023-05-23T19:58:34.262Z,16.99
2023-05-23T20:01:06.469Z,16.85
2023-05-23T20:03:36.000Z,16.75
2023-05-23T20:06:05.999Z,16.66
2023-05-23T20:08:37.505Z,16.56
2023-05-23T20:11:11.656Z,16.50
2023-05-23T20:13:44.936Z,16.34
2023-05-23T20:16:19.756Z,16.28
2023-05-23T20:18:52.987Z,16.17
2023-05-23T20:21:28.919Z,16.06
2023-05-23T20:23:58.197Z,15.92
2023-05-23T20:26:30.969Z,15.84
2023-05-23T20:29:05.063Z,15.77
2023-05-23T20:31:35.008Z,15.63
2023-05-23T20:34:06.914Z,15.53
2023-05-23T20:36:42.605Z,15.39
2023-05-23T20:39:13.558Z,15.29
2023-05-23T20:41:44.431Z,15.18
2023-05-23T20:44:15.942Z,15.03
2023-05-23T20:46:44.789Z,14.86
2023-05-23T20:49:14.660Z,14.81
2023-05-23T20:51:44.948Z,14.67
2023-05-23T20:54:14.928Z,14.53
2023-05-23T20:56:47.019Z,14.47
2023-05-23T20:59:18.954Z,14.42
2023-05-23T21:01:47.652Z,14.30
2023-05-23T21:04:18.813Z,14.22
2023-05-23T21:06:48.893Z,14.11
2023-05-23T21:09:19.737Z,14.07
2023-05-23T21:11:48.598Z,13.92
2023-05-23T21:14:19.229Z,13.88
2023-05-23T21:16:47.816Z,13.78
2023-05-23T21:19:16.407Z,13.71
2023-05-23T21:21:44.860Z,13.62
2023-05-23T21:24:17.187Z,13.59
2023-05-23T21:26:45.444Z,13.47
2023-05-23T21:29:14.156Z,13.45
2023-05-23T21:31:43.082Z,13.38
2023-05-23T21:34:23.137Z,13.30
2023-05-23T21:36:53.004Z,13.23
2023-05-23T21:39:23.994Z,13.18
2023-05-23T21:41:52.118Z,13.08
2023-05-23T21:44:20.443Z,13.06
2023-05-23T21:46:49.286Z,12.96
2023-05-23T21:49:18.890Z,12.92
2023-05-23T21:51:47.402Z,12.87
2023-05-23T21:54:15.579Z,12.80
2023-05-23T21:56:45.222Z,12.73
2023-05-23T21:59:13.405Z,12.69
2023-05-23T22:01:41.597Z,12.62
2023-05-23T22:04:09.856Z,12.56
2023-05-23T22:06:38.723Z,12.48
2023-05-23T22:09:10.236Z,12.41
2023-05-23T22:11:38.486Z,12.35
2023-05-23T22:14:08.631Z,12.27
2023-05-23T22:16:39.426Z,12.19
2023-05-23T22:19:09.183Z,12.13
2023-05-23T22:21:38.134Z,11.97
2023-05-23T22:24:06.549Z,11.87
2023-05-23T22:26:34.650Z,11.72
2023-05-23T22:29:02.853Z,11.65
2023-05-23T22:31:32.692Z,11.59
2023-05-23T22:34:00.936Z,11.54
2023-05-23T22:36:29.097Z,11.50
2023-05-23T22:38:58.031Z,11.42
2023-05-23T22:41:27.936Z,11.42
2023-05-23T22:43:56.471Z,11.39
2023-05-23T22:46:25.060Z,11.38
2023-05-23T22:48:55.374Z,11.34
2023-05-23T22:51:23.874Z,11.29
2023-05-23T22:53:52.932Z,11.24
2023-05-23T22:56:21.026Z,11.14
2023-05-23T22:58:49.133Z,11.01
2023-05-23T23:01:17.470Z,10.87
2023-05-23T23:03:45.930Z,10.78
2023-05-23T23:06:15.665Z,10.68
2023-05-23T23:08:43.925Z,10.64
2023-05-23T23:11:12.081Z,10.60
2023-05-23T23:13:40.618Z,10.59
2023-05-23T23:16:09.365Z,10.57
2023-05-23T23:18:37.552Z,10.58
2023-05-23T23:21:06.112Z,10.55
2023-05-23T23:23:36.752Z,10.55
2023-05-23T23:26:04.972Z,10.54
2023-05-23T23:28:33.067Z,10.54
2023-05-23T23:31:01.246Z,10.51
2023-05-23T23:33:29.827Z,10.49
2023-05-23T23:35:58.504Z,10.45
2023-05-23T23:38:26.596Z,10.42
2023-05-23T23:40:56.138Z,10.40
2023-05-23T23:43:24.586Z,10.36
2023-05-23T23:45:53.215Z,10.31
2023-05-23T23:48:21.426Z,10.28
2023-05-23T23:50:49.584Z,10.23
2023-05-23T23:53:18.196Z,10.18
2023-05-23T23:55:46.512Z,10.13
2023-05-23T23:58:16.361Z,10.09
